^^
Meteo Knjazevac Station Historical Data
Daily Summary for May 08, 2021 Units:  Both    English   Metric
Daily Weekly Monthly Yearly Custom
  High: Low: Average:
Temperature: 64.2 °F /  17.9 °C 51.1 °F /  10.6 °C 55.7 °F /  13.2 °C
Dew Point: 52.8 °F /  11.6 °C 41.2 °F /  5.1 °C 45.2 °F /  7.3 °C
Humidity: 83% 43% 69%
Wind Speed: 14mph /  22.5km/h - 7.2mph /  11.6km/h
Wind Gust: 27mph /  43.5km/h - -
Wind- - WSW
Pressure: 30.19 in /  1022.2 hPa 29.96 in /  1014.4 hPa -
Precipitation: 0.00 in /  0 mm    
Historical Graphs
 
 
Tabular Data for May 08, 2021
Time Temperature Dew Point Pressure Wind Wind Speed Wind Gust Humidity Rainfall Rate (Hourly) solar Conditions
00:00 61.5 °F /  16.4 °C 52.8 °F /  11.6 °C 29.96in /  1014.4hPa West 12mph /  19.3km/h 23mph /  37km/h 73% 0.00in /  0mm 0 W/m2
00:10 60.3 °F /  15.7 °C 52.3 °F /  11.3 °C 29.97in /  1014.8hPa WSW 13mph /  20.9km/h 27mph /  43.5km/h 75% 0.00in /  0mm 0 W/m2
00:20 59.2 °F /  15.1 °C 52 °F /  11.1 °C 29.98in /  1015.1hPa WSW 14mph /  22.5km/h 24mph /  38.6km/h 77% 0.00in /  0mm 0 W/m2
00:30 58.5 °F /  14.7 °C 51.6 °F /  10.9 °C 29.99in /  1015.5hPa WSW 10mph /  16.1km/h 23mph /  37km/h 78% 0.00in /  0mm 0 W/m2
00:40 57.9 °F /  14.4 °C 51.1 °F /  10.6 °C 29.99in /  1015.5hPa WSW 9mph /  14.5km/h 22mph /  35.4km/h 78% 0.00in /  0mm 0 W/m2
00:50 57.4 °F /  14.1 °C 50.6 °F /  10.3 °C 30.00in /  1015.8hPa WSW 9mph /  14.5km/h 16mph /  25.7km/h 78% 0.00in /  0mm 0 W/m2
01:00 57.2 °F /  14 °C 50.4 °F /  10.2 °C 30.00in /  1015.8hPa WSW 10mph /  16.1km/h 17mph /  27.4km/h 78% 0.00in /  0mm 0 W/m2
01:10 56.8 °F /  13.8 °C 49.7 °F /  9.8 °C 30.01in /  1016.1hPa WSW 12mph /  19.3km/h 20mph /  32.2km/h 77% 0.00in /  0mm 0 W/m2
01:20 56.5 °F /  13.6 °C 49.4 °F /  9.7 °C 30.02in /  1016.5hPa WSW 10mph /  16.1km/h 21mph /  33.8km/h 77% 0.00in /  0mm 0 W/m2
01:30 55.9 °F /  13.3 °C 48.1 °F /  8.9 °C 30.02in /  1016.5hPa WSW 10mph /  16.1km/h 22mph /  35.4km/h 75% 0.00in /  0mm 0 W/m2
01:40 55.4 °F /  13 °C 48.3 °F /  9.1 °C 30.03in /  1016.8hPa WSW 9mph /  14.5km/h 20mph /  32.2km/h 77% 0.00in /  0mm 0 W/m2
01:50 55 °F /  12.8 °C 48 °F /  8.9 °C 30.04in /  1017.2hPa WSW 8mph /  12.9km/h 15mph /  24.1km/h 77% 0.00in /  0mm 0 W/m2
02:00 54.7 °F /  12.6 °C 47.6 °F /  8.7 °C 30.05in /  1017.5hPa WSW 8mph /  12.9km/h 18mph /  29km/h 77% 0.00in /  0mm 0 W/m2
02:10 54.4 °F /  12.4 °C 47.3 °F /  8.5 °C 30.06in /  1017.8hPa WSW 8mph /  12.9km/h 15mph /  24.1km/h 77% 0.00in /  0mm 0 W/m2
02:20 54.1 °F /  12.3 °C 47.1 °F /  8.4 °C 30.06in /  1017.8hPa WSW 9mph /  14.5km/h 14mph /  22.5km/h 77% 0.00in /  0mm 0 W/m2
02:30 54 °F /  12.2 °C 46.9 °F /  8.3 °C 30.06in /  1017.8hPa West 3mph /  4.8km/h 12mph /  19.3km/h 77% 0.00in /  0mm 0 W/m2
02:40 53.8 °F /  12.1 °C 47.1 °F /  8.4 °C 30.07in /  1018.2hPa WSW 6mph /  9.7km/h 15mph /  24.1km/h 78% 0.00in /  0mm 0 W/m2
02:50 53.6 °F /  12 °C 47.2 °F /  8.4 °C 30.07in /  1018.2hPa WSW 5mph /  8km/h 17mph /  27.4km/h 79% 0.00in /  0mm 0 W/m2
03:00 53.4 °F /  11.9 °C 47.1 °F /  8.4 °C 30.08in /  1018.5hPa WSW 6mph /  9.7km/h 13mph /  20.9km/h 79% 0.00in /  0mm 0 W/m2
03:10 53.2 °F /  11.8 °C 46.9 °F /  8.3 °C 30.08in /  1018.5hPa West 7mph /  11.3km/h 12mph /  19.3km/h 79% 0.00in /  0mm 0 W/m2
03:20 53.1 °F /  11.7 °C 47.1 °F /  8.4 °C 30.08in /  1018.5hPa West 6mph /  9.7km/h 14mph /  22.5km/h 80% 0.00in /  0mm 0 W/m2
03:30 52.7 °F /  11.5 °C 47 °F /  8.3 °C 30.09in /  1018.8hPa West 6mph /  9.7km/h 14mph /  22.5km/h 81% 0.00in /  0mm 0 W/m2
03:40 52.4 °F /  11.3 °C 46.7 °F /  8.2 °C 30.09in /  1018.8hPa WSW 6mph /  9.7km/h 15mph /  24.1km/h 81% 0.00in /  0mm 0 W/m2
03:50 52.2 °F /  11.2 °C 46.5 °F /  8.1 °C 30.09in /  1018.8hPa WSW 6mph /  9.7km/h 12mph /  19.3km/h 81% 0.00in /  0mm 0 W/m2
04:00 52 °F /  11.1 °C 46.3 °F /  7.9 °C 30.10in /  1019.2hPa West 5mph /  8km/h 12mph /  19.3km/h 81% 0.00in /  0mm 0 W/m2
04:10 51.8 °F /  11 °C 46.2 °F /  7.9 °C 30.10in /  1019.2hPa West 2mph /  3.2km/h 6mph /  9.7km/h 81% 0.00in /  0mm 0 W/m2
04:20 51.8 °F /  11 °C 46.2 °F /  7.9 °C 30.10in /  1019.2hPa WSW 5mph /  8km/h 9mph /  14.5km/h 81% 0.00in /  0mm 0 W/m2
04:30 51.8 °F /  11 °C 46.2 °F /  7.9 °C 30.11in /  1019.5hPa WSW 3mph /  4.8km/h 7mph /  11.3km/h 81% 0.00in /  0mm 0 W/m2
04:40 51.6 °F /  10.9 °C 46 °F /  7.8 °C 30.11in /  1019.5hPa WSW 3mph /  4.8km/h 8mph /  12.9km/h 81% 0.00in /  0mm 0 W/m2
04:50 51.6 °F /  10.9 °C 46 °F /  7.8 °C 30.11in /  1019.5hPa WSW 3mph /  4.8km/h 9mph /  14.5km/h 81% 0.00in /  0mm 0 W/m2
05:00 51.4 °F /  10.8 °C 45.8 °F /  7.7 °C 30.11in /  1019.5hPa West 6mph /  9.7km/h 12mph /  19.3km/h 81% 0.00in /  0mm 0 W/m2
05:10 51.3 °F /  10.7 °C 46.3 °F /  7.9 °C 30.11in /  1019.5hPa WSW 7mph /  11.3km/h 12mph /  19.3km/h 83% 0.00in /  0mm 0 W/m2
05:20 51.3 °F /  10.7 °C 46.3 °F /  7.9 °C 30.11in /  1019.5hPa WSW 6mph /  9.7km/h 12mph /  19.3km/h 83% 0.00in /  0mm 2 W/m2
05:30 51.1 °F /  10.6 °C 45.5 °F /  7.5 °C 30.12in /  1019.9hPa WSW 5mph /  8km/h 13mph /  20.9km/h 81% 0.00in /  0mm 6 W/m2
05:40 51.1 °F /  10.6 °C 46.1 °F /  7.8 °C 30.12in /  1019.9hPa West 3mph /  4.8km/h 11mph /  17.7km/h 83% 0.00in /  0mm 13 W/m2
05:50 51.1 °F /  10.6 °C 46.1 °F /  7.8 °C 30.12in /  1019.9hPa WSW 3mph /  4.8km/h 8mph /  12.9km/h 83% 0.00in /  0mm 20 W/m2
06:00 51.1 °F /  10.6 °C 46.1 °F /  7.8 °C 30.13in /  1020.2hPa SW 3mph /  4.8km/h 11mph /  17.7km/h 83% 0.00in /  0mm 21 W/m2
06:10 51.1 °F /  10.6 °C 45.5 °F /  7.5 °C 30.13in /  1020.2hPa WSW 5mph /  8km/h 8mph /  12.9km/h 81% 0.00in /  0mm 23 W/m2
06:20 51.1 °F /  10.6 °C 45.5 °F /  7.5 °C 30.13in /  1020.2hPa WSW 5mph /  8km/h 8mph /  12.9km/h 81% 0.00in /  0mm 28 W/m2
06:30 51.1 °F /  10.6 °C 45.5 °F /  7.5 °C 30.13in /  1020.2hPa West 7mph /  11.3km/h 12mph /  19.3km/h 81% 0.00in /  0mm 38 W/m2
06:40 51.2 °F /  10.7 °C 45.6 °F /  7.6 °C 30.14in /  1020.5hPa WSW 3mph /  4.8km/h 7mph /  11.3km/h 81% 0.00in /  0mm 39 W/m2
06:50 51.3 °F /  10.7 °C 45.6 °F /  7.6 °C 30.14in /  1020.5hPa WSW 6mph /  9.7km/h 8mph /  12.9km/h 81% 0.00in /  0mm 57 W/m2
07:00 51.3 °F /  10.7 °C 45.6 °F /  7.6 °C 30.15in /  1020.9hPa WSW 5mph /  8km/h 11mph /  17.7km/h 81% 0.00in /  0mm 61 W/m2
07:10 51.3 °F /  10.7 °C 45.6 °F /  7.6 °C 30.15in /  1020.9hPa WSW 6mph /  9.7km/h 12mph /  19.3km/h 81% 0.00in /  0mm 44 W/m2
07:20 51.4 °F /  10.8 °C 45.8 °F /  7.7 °C 30.15in /  1020.9hPa WSW 7mph /  11.3km/h 13mph /  20.9km/h 81% 0.00in /  0mm 107 W/m2
07:30 51.6 °F /  10.9 °C 45.6 °F /  7.6 °C 30.16in /  1021.2hPa WSW 7mph /  11.3km/h 14mph /  22.5km/h 80% 0.00in /  0mm 120 W/m2
07:40 51.8 °F /  11 °C 45.5 °F /  7.5 °C 30.16in /  1021.2hPa West 6mph /  9.7km/h 13mph /  20.9km/h 79% 0.00in /  0mm 148 W/m2
07:50 51.8 °F /  11 °C 45.2 °F /  7.3 °C 30.17in /  1021.6hPa West 5mph /  8km/h 11mph /  17.7km/h 78% 0.00in /  0mm 150 W/m2
08:00 52 °F /  11.1 °C 45 °F /  7.2 °C 30.17in /  1021.6hPa West 5mph /  8km/h 11mph /  17.7km/h 77% 0.00in /  0mm 253 W/m2
08:10 52.2 °F /  11.2 °C 44.1 °F /  6.7 °C 30.18in /  1021.9hPa WSW 8mph /  12.9km/h 12mph /  19.3km/h 74% 0.00in /  0mm 200 W/m2
08:20 52.3 °F /  11.3 °C 43.9 °F /  6.6 °C 30.18in /  1021.9hPa WSW 7mph /  11.3km/h 11mph /  17.7km/h 73% 0.00in /  0mm 265 W/m2
08:30 52.7 °F /  11.5 °C 43.9 °F /  6.6 °C 30.18in /  1021.9hPa WSW 8mph /  12.9km/h 13mph /  20.9km/h 72% 0.00in /  0mm 245 W/m2
08:40 52.9 °F /  11.6 °C 44.1 °F /  6.7 °C 30.18in /  1021.9hPa WSW 5mph /  8km/h 10mph /  16.1km/h 72% 0.00in /  0mm 262 W/m2
08:50 52.9 °F /  11.6 °C 43 °F /  6.1 °C 30.18in /  1021.9hPa WSW 7mph /  11.3km/h 12mph /  19.3km/h 69% 0.00in /  0mm 195 W/m2
09:00 52.9 °F /  11.6 °C 43 °F /  6.1 °C 30.19in /  1022.2hPa WSW 6mph /  9.7km/h 12mph /  19.3km/h 69% 0.00in /  0mm 333 W/m2
09:10 54.1 °F /  12.3 °C 43.4 °F /  6.3 °C 30.19in /  1022.2hPa WSW 7mph /  11.3km/h 12mph /  19.3km/h 67% 0.00in /  0mm 650 W/m2
09:20 55.4 °F /  13 °C 43.4 °F /  6.3 °C 30.19in /  1022.2hPa WSW 8mph /  12.9km/h 13mph /  20.9km/h 64% 0.00in /  0mm 676 W/m2
09:30 55.1 °F /  12.8 °C 42.7 °F /  5.9 °C 30.19in /  1022.2hPa WSW 6mph /  9.7km/h 12mph /  19.3km/h 63% 0.00in /  0mm 287 W/m2
09:40 54.7 °F /  12.6 °C 42.3 °F /  5.7 °C 30.19in /  1022.2hPa WSW 5mph /  8km/h 10mph /  16.1km/h 63% 0.00in /  0mm 309 W/m2
09:50 55.2 °F /  12.9 °C 42.4 °F /  5.8 °C 30.19in /  1022.2hPa WSW 8mph /  12.9km/h 12mph /  19.3km/h 62% 0.00in /  0mm 410 W/m2
10:00 55.4 °F /  13 °C 41.7 °F /  5.4 °C 30.19in /  1022.2hPa WSW 6mph /  9.7km/h 12mph /  19.3km/h 60% 0.00in /  0mm 409 W/m2
10:10 56.3 °F /  13.5 °C 42.6 °F /  5.9 °C 30.19in /  1022.2hPa SW 2mph /  3.2km/h 8mph /  12.9km/h 60% 0.00in /  0mm 540 W/m2
10:20 56.5 °F /  13.6 °C 41.9 °F /  5.5 °C 30.18in /  1021.9hPa WSW 5mph /  8km/h 8mph /  12.9km/h 58% 0.00in /  0mm 465 W/m2
10:30 57.2 °F /  14 °C 42.5 °F /  5.8 °C 30.18in /  1021.9hPa WSW 8mph /  12.9km/h 13mph /  20.9km/h 58% 0.00in /  0mm 803 W/m2
10:40 57.6 °F /  14.2 °C 42.9 °F /  6.1 °C 30.19in /  1022.2hPa West 6mph /  9.7km/h 13mph /  20.9km/h 58% 0.00in /  0mm 521 W/m2
10:50 58.3 °F /  14.6 °C 43.1 °F /  6.2 °C 30.19in /  1022.2hPa WSW 9mph /  14.5km/h 13mph /  20.9km/h 57% 0.00in /  0mm 411 W/m2
11:00 57.9 °F /  14.4 °C 42.8 °F /  6 °C 30.19in /  1022.2hPa WSW 12mph /  19.3km/h 16mph /  25.7km/h 57% 0.00in /  0mm 358 W/m2
11:10 57.7 °F /  14.3 °C 42.6 °F /  5.9 °C 30.18in /  1021.9hPa WSW 7mph /  11.3km/h 20mph /  32.2km/h 57% 0.00in /  0mm 397 W/m2
11:20 57.7 °F /  14.3 °C 42.6 °F /  5.9 °C 30.19in /  1022.2hPa WSW 10mph /  16.1km/h 15mph /  24.1km/h 57% 0.00in /  0mm 357 W/m2
11:30 58.1 °F /  14.5 °C 42 °F /  5.6 °C 30.19in /  1022.2hPa WSW 8mph /  12.9km/h 16mph /  25.7km/h 55% 0.00in /  0mm 818 W/m2
11:40 58.5 °F /  14.7 °C 41.9 °F /  5.5 °C 30.19in /  1022.2hPa WSW 8mph /  12.9km/h 14mph /  22.5km/h 54% 0.00in /  0mm 838 W/m2
11:50 58.8 °F /  14.9 °C 42.2 °F /  5.7 °C 30.19in /  1022.2hPa WSW 7mph /  11.3km/h 13mph /  20.9km/h 54% 0.00in /  0mm 816 W/m2
12:00 59.4 °F /  15.2 °C 42.2 °F /  5.7 °C 30.18in /  1021.9hPa WSW 7mph /  11.3km/h 15mph /  24.1km/h 53% 0.00in /  0mm 926 W/m2
12:10 59.9 °F /  15.5 °C 42.7 °F /  5.9 °C 30.19in /  1022.2hPa WSW 6mph /  9.7km/h 15mph /  24.1km/h 53% 0.00in /  0mm 929 W/m2
12:20 60.6 °F /  15.9 °C 42.9 °F /  6.1 °C 30.18in /  1021.9hPa WSW 8mph /  12.9km/h 15mph /  24.1km/h 52% 0.00in /  0mm 930 W/m2
12:30 61.2 °F /  16.2 °C 43.4 °F /  6.3 °C 30.18in /  1021.9hPa WSW 12mph /  19.3km/h 17mph /  27.4km/h 52% 0.00in /  0mm 930 W/m2
12:40 61.2 °F /  16.2 °C 43.4 °F /  6.3 °C 30.18in /  1021.9hPa WSW 8mph /  12.9km/h 17mph /  27.4km/h 52% 0.00in /  0mm 929 W/m2
12:50 61.2 °F /  16.2 °C 42.4 °F /  5.8 °C 30.18in /  1021.9hPa WSW 9mph /  14.5km/h 15mph /  24.1km/h 50% 0.00in /  0mm 774 W/m2
13:00 61.7 °F /  16.5 °C 42.9 °F /  6.1 °C 30.17in /  1021.6hPa WSW 9mph /  14.5km/h 18mph /  29km/h 50% 0.00in /  0mm 921 W/m2
13:10 61.5 °F /  16.4 °C 42.7 °F /  5.9 °C 30.17in /  1021.6hPa WSW 8mph /  12.9km/h 18mph /  29km/h 50% 0.00in /  0mm 915 W/m2
13:20 61.9 °F /  16.6 °C 43 °F /  6.1 °C 30.17in /  1021.6hPa WSW 7mph /  11.3km/h 15mph /  24.1km/h 50% 0.00in /  0mm 907 W/m2
13:30 62.2 °F /  16.8 °C 42.8 °F /  6 °C 30.17in /  1021.6hPa WSW 7mph /  11.3km/h 17mph /  27.4km/h 49% 0.00in /  0mm 897 W/m2
13:40 62.4 °F /  16.9 °C 42.5 °F /  5.8 °C 30.17in /  1021.6hPa SW 10mph /  16.1km/h 17mph /  27.4km/h 48% 0.00in /  0mm 887 W/m2
13:50 62.8 °F /  17.1 °C 43.3 °F /  6.3 °C 30.17in /  1021.6hPa WSW 6mph /  9.7km/h 19mph /  30.6km/h 49% 0.00in /  0mm 874 W/m2
14:00 63.3 °F /  17.4 °C 43.3 °F /  6.3 °C 30.17in /  1021.6hPa WSW 6mph /  9.7km/h 15mph /  24.1km/h 48% 0.00in /  0mm 861 W/m2
14:10 63 °F /  17.2 °C 41.3 °F /  5.2 °C 30.17in /  1021.6hPa WSW 13mph /  20.9km/h 20mph /  32.2km/h 45% 0.00in /  0mm 845 W/m2
14:20 63.3 °F /  17.4 °C 41.6 °F /  5.3 °C 30.16in /  1021.2hPa WSW 13mph /  20.9km/h 17mph /  27.4km/h 45% 0.00in /  0mm 829 W/m2
14:30 63.7 °F /  17.6 °C 41.9 °F /  5.5 °C 30.17in /  1021.6hPa West 9mph /  14.5km/h 15mph /  24.1km/h 45% 0.00in /  0mm 811 W/m2
14:40 64 °F /  17.8 °C 41.7 °F /  5.4 °C 30.16in /  1021.2hPa WSW 9mph /  14.5km/h 15mph /  24.1km/h 44% 0.00in /  0mm 791 W/m2
14:50 64.2 °F /  17.9 °C 41.2 °F /  5.1 °C 30.16in /  1021.2hPa WSW 12mph /  19.3km/h 18mph /  29km/h 43% 0.00in /  0mm 771 W/m2
Knjazevac, Serbia
Compliments of Weather Underground - 2 mb